sensor_id;sensor_type;location;lat;lon;timestamp;P1;durP1;ratioP1;P2;durP2;ratioP2
11287;SDS011;5700;50.996;7.044;2023-05-10T00:00:42;10.43;;;5.15;;
11287;SDS011;5700;50.996;7.044;2023-05-10T00:03:44;11.48;;;5.72;;
11287;SDS011;5700;50.996;7.044;2023-05-10T00:06:46;10.65;;;5.40;;
11287;SDS011;5700;50.996;7.044;2023-05-10T00:09:47;12.32;;;6.60;;
11287;SDS011;5700;50.996;7.044;2023-05-10T00:12:49;10.30;;;5.45;;
11287;SDS011;5700;50.996;7.044;2023-05-10T00:15:50;9.68;;;5.43;;
11287;SDS011;5700;50.996;7.044;2023-05-10T00:18:53;11.70;;;4.90;;
11287;SDS011;5700;50.996;7.044;2023-05-10T00:21:54;9.60;;;4.95;;
11287;SDS011;5700;50.996;7.044;2023-05-10T00:24:56;12.02;;;5.35;;
11287;SDS011;5700;50.996;7.044;2023-05-10T00:27:57;9.55;;;4.93;;
11287;SDS011;5700;50.996;7.044;2023-05-10T00:31:01;12.27;;;5.55;;
11287;SDS011;5700;50.996;7.044;2023-05-10T00:34:04;10.07;;;5.10;;
11287;SDS011;5700;50.996;7.044;2023-05-10T00:37:05;8.90;;;4.32;;
11287;SDS011;5700;50.996;7.044;2023-05-10T00:40:07;11.20;;;5.10;;
11287;SDS011;5700;50.996;7.044;2023-05-10T00:43:08;10.43;;;4.80;;
11287;SDS011;5700;50.996;7.044;2023-05-10T00:46:10;9.65;;;5.10;;
11287;SDS011;5700;50.996;7.044;2023-05-10T00:49:13;10.18;;;5.50;;
11287;SDS011;5700;50.996;7.044;2023-05-10T00:52:15;10.48;;;5.88;;
11287;SDS011;5700;50.996;7.044;2023-05-10T00:55:16;10.05;;;5.60;;
11287;SDS011;5700;50.996;7.044;2023-05-10T00:58:19;12.88;;;6.57;;
11287;SDS011;5700;50.996;7.044;2023-05-10T01:01:20;13.98;;;6.18;;
11287;SDS011;5700;50.996;7.044;2023-05-10T01:04:23;12.15;;;5.88;;
11287;SDS011;5700;50.996;7.044;2023-05-10T01:07:25;12.38;;;6.22;;
11287;SDS011;5700;50.996;7.044;2023-05-10T01:10:27;12.40;;;6.03;;
11287;SDS011;5700;50.996;7.044;2023-05-10T01:13:30;15.45;;;7.75;;
11287;SDS011;5700;50.996;7.044;2023-05-10T01:16:35;14.52;;;7.40;;
11287;SDS011;5700;50.996;7.044;2023-05-10T01:19:39;13.38;;;6.88;;
11287;SDS011;5700;50.996;7.044;2023-05-10T01:22:46;13.48;;;6.90;;
11287;SDS011;5700;50.996;7.044;2023-05-10T01:26:06;14.88;;;7.93;;
11287;SDS011;5700;50.996;7.044;2023-05-10T01:29:28;15.68;;;7.20;;
11287;SDS011;5700;50.996;7.044;2023-05-10T01:32:40;15.38;;;7.68;;
11287;SDS011;5700;50.996;7.044;2023-05-10T01:35:47;15.32;;;8.05;;
11287;SDS011;5700;50.996;7.044;2023-05-10T01:38:56;16.38;;;8.50;;
11287;SDS011;5700;50.996;7.044;2023-05-10T01:42:01;18.23;;;8.85;;
11287;SDS011;5700;50.996;7.044;2023-05-10T01:45:07;17.55;;;8.25;;
11287;SDS011;5700;50.996;7.044;2023-05-10T01:48:15;15.38;;;7.82;;
11287;SDS011;5700;50.996;7.044;2023-05-10T01:51:19;14.48;;;8.13;;
11287;SDS011;5700;50.996;7.044;2023-05-10T01:54:23;14.23;;;7.20;;
11287;SDS011;5700;50.996;7.044;2023-05-10T01:57:26;9.40;;;5.22;;
11287;SDS011;5700;50.996;7.044;2023-05-10T02:00:30;11.25;;;5.65;;
11287;SDS011;5700;50.996;7.044;2023-05-10T02:03:34;11.35;;;4.97;;
11287;SDS011;5700;50.996;7.044;2023-05-10T02:06:36;10.32;;;5.53;;
11287;SDS011;5700;50.996;7.044;2023-05-10T02:09:39;6.90;;;4.20;;
11287;SDS011;5700;50.996;7.044;2023-05-10T02:12:43;9.25;;;4.80;;
11287;SDS011;5700;50.996;7.044;2023-05-10T02:15:46;11.38;;;5.03;;
11287;SDS011;5700;50.996;7.044;2023-05-10T02:18:50;9.98;;;4.32;;
11287;SDS011;5700;50.996;7.044;2023-05-10T02:21:53;8.20;;;4.30;;
11287;SDS011;5700;50.996;7.044;2023-05-10T02:24:55;8.90;;;4.57;;
11287;SDS011;5700;50.996;7.044;2023-05-10T02:28:00;8.10;;;3.90;;
11287;SDS011;5700;50.996;7.044;2023-05-10T02:31:03;13.38;;;5.30;;
11287;SDS011;5700;50.996;7.044;2023-05-10T02:34:07;11.13;;;5.68;;
11287;SDS011;5700;50.996;7.044;2023-05-10T02:37:09;11.82;;;5.55;;
11287;SDS011;5700;50.996;7.044;2023-05-10T02:40:11;9.90;;;5.30;;
11287;SDS011;5700;50.996;7.044;2023-05-10T02:43:14;9.85;;;4.57;;
11287;SDS011;5700;50.996;7.044;2023-05-10T02:46:17;8.00;;;4.40;;
11287;SDS011;5700;50.996;7.044;2023-05-10T02:49:20;10.25;;;5.55;;
11287;SDS011;5700;50.996;7.044;2023-05-10T02:52:22;12.15;;;5.68;;
11287;SDS011;5700;50.996;7.044;2023-05-10T02:55:26;10.90;;;5.13;;
11287;SDS011;5700;50.996;7.044;2023-05-10T02:58:32;12.18;;;4.95;;
11287;SDS011;5700;50.996;7.044;2023-05-10T03:01:34;12.65;;;5.90;;
11287;SDS011;5700;50.996;7.044;2023-05-10T03:04:37;11.18;;;5.22;;
11287;SDS011;5700;50.996;7.044;2023-05-10T03:07:38;10.60;;;4.75;;
11287;SDS011;5700;50.996;7.044;2023-05-10T03:10:41;8.25;;;4.03;;
11287;SDS011;5700;50.996;7.044;2023-05-10T03:13:54;10.32;;;4.40;;
11287;SDS011;5700;50.996;7.044;2023-05-10T03:17:02;8.82;;;4.93;;
11287;SDS011;5700;50.996;7.044;2023-05-10T03:20:08;11.95;;;4.95;;
11287;SDS011;5700;50.996;7.044;2023-05-10T03:23:12;9.93;;;4.93;;
11287;SDS011;5700;50.996;7.044;2023-05-10T03:26:17;8.23;;;4.20;;
11287;SDS011;5700;50.996;7.044;2023-05-10T03:29:21;11.07;;;4.53;;
11287;SDS011;5700;50.996;7.044;2023-05-10T03:32:23;7.05;;;3.97;;
11287;SDS011;5700;50.996;7.044;2023-05-10T03:35:28;8.48;;;4.13;;
11287;SDS011;5700;50.996;7.044;2023-05-10T03:38:29;9.30;;;4.20;;
11287;SDS011;5700;50.996;7.044;2023-05-10T03:41:31;11.98;;;3.88;;
11287;SDS011;5700;50.996;7.044;2023-05-10T03:44:33;9.90;;;4.63;;
11287;SDS011;5700;50.996;7.044;2023-05-10T03:47:34;8.88;;;4.20;;
11287;SDS011;5700;50.996;7.044;2023-05-10T03:50:37;8.27;;;4.25;;
11287;SDS011;5700;50.996;7.044;2023-05-10T03:53:39;10.30;;;4.88;;
11287;SDS011;5700;50.996;7.044;2023-05-10T03:56:40;8.10;;;4.45;;
11287;SDS011;5700;50.996;7.044;2023-05-10T03:59:42;9.68;;;5.07;;
11287;SDS011;5700;50.996;7.044;2023-05-10T04:02:43;9.55;;;5.43;;
11287;SDS011;5700;50.996;7.044;2023-05-10T04:05:48;12.07;;;5.55;;
11287;SDS011;5700;50.996;7.044;2023-05-10T04:08:50;13.48;;;6.07;;
11287;SDS011;5700;50.996;7.044;2023-05-10T04:11:51;16.27;;;6.90;;
11287;SDS011;5700;50.996;7.044;2023-05-10T04:14:53;11.40;;;5.43;;
11287;SDS011;5700;50.996;7.044;2023-05-10T04:17:54;9.85;;;5.43;;
11287;SDS011;5700;50.996;7.044;2023-05-10T04:20:57;11.60;;;5.63;;
11287;SDS011;5700;50.996;7.044;2023-05-10T04:23:58;13.82;;;7.13;;
11287;SDS011;5700;50.996;7.044;2023-05-10T04:27:00;12.95;;;6.28;;
11287;SDS011;5700;50.996;7.044;2023-05-10T04:30:02;13.13;;;6.50;;
11287;SDS011;5700;50.996;7.044;2023-05-10T04:33:04;13.23;;;6.70;;
11287;SDS011;5700;50.996;7.044;2023-05-10T04:36:07;14.15;;;7.47;;
11287;SDS011;5700;50.996;7.044;2023-05-10T04:39:08;19.83;;;8.25;;
11287;SDS011;5700;50.996;7.044;2023-05-10T04:42:10;17.77;;;8.13;;
11287;SDS011;5700;50.996;7.044;2023-05-10T04:45:12;19.98;;;7.65;;
11287;SDS011;5700;50.996;7.044;2023-05-10T04:48:14;16.50;;;7.28;;
11287;SDS011;5700;50.996;7.044;2023-05-10T04:51:17;16.33;;;8.25;;
11287;SDS011;5700;50.996;7.044;2023-05-10T04:54:18;21.10;;;9.23;;
11287;SDS011;5700;50.996;7.044;2023-05-10T04:57:20;17.95;;;9.40;;
11287;SDS011;5700;50.996;7.044;2023-05-10T05:00:22;18.27;;;8.50;;
11287;SDS011;5700;50.996;7.044;2023-05-10T05:03:23;20.23;;;9.18;;
11287;SDS011;5700;50.996;7.044;2023-05-10T05:06:26;18.17;;;8.10;;
11287;SDS011;5700;50.996;7.044;2023-05-10T05:09:28;19.52;;;9.25;;
11287;SDS011;5700;50.996;7.044;2023-05-10T05:12:29;21.48;;;9.95;;
11287;SDS011;5700;50.996;7.044;2023-05-10T05:15:30;18.98;;;9.45;;
11287;SDS011;5700;50.996;7.044;2023-05-10T05:18:32;21.70;;;10.57;;
11287;SDS011;5700;50.996;7.044;2023-05-10T05:21:34;23.77;;;11.73;;
11287;SDS011;5700;50.996;7.044;2023-05-10T05:24:36;19.58;;;10.60;;
11287;SDS011;5700;50.996;7.044;2023-05-10T05:27:38;23.30;;;11.07;;
11287;SDS011;5700;50.996;7.044;2023-05-10T05:30:39;23.38;;;12.05;;
11287;SDS011;5700;50.996;7.044;2023-05-10T05:33:41;23.15;;;10.70;;
11287;SDS011;5700;50.996;7.044;2023-05-10T05:36:43;24.00;;;12.75;;
11287;SDS011;5700;50.996;7.044;2023-05-10T05:39:45;25.52;;;10.73;;
11287;SDS011;5700;50.996;7.044;2023-05-10T05:42:47;22.70;;;11.93;;
11287;SDS011;5700;50.996;7.044;2023-05-10T05:45:49;17.58;;;8.38;;
11287;SDS011;5700;50.996;7.044;2023-05-10T05:48:50;16.67;;;8.65;;
11287;SDS011;5700;50.996;7.044;2023-05-10T05:51:53;21.73;;;8.80;;
11287;SDS011;5700;50.996;7.044;2023-05-10T05:54:55;20.38;;;8.88;;
11287;SDS011;5700;50.996;7.044;2023-05-10T05:58:00;18.33;;;8.05;;
11287;SDS011;5700;50.996;7.044;2023-05-10T06:01:02;15.90;;;8.10;;
11287;SDS011;5700;50.996;7.044;2023-05-10T06:04:03;19.27;;;8.25;;
11287;SDS011;5700;50.996;7.044;2023-05-10T06:07:06;19.48;;;9.00;;
11287;SDS011;5700;50.996;7.044;2023-05-10T06:10:08;18.77;;;7.88;;
11287;SDS011;5700;50.996;7.044;2023-05-10T06:13:09;18.27;;;7.63;;
11287;SDS011;5700;50.996;7.044;2023-05-10T06:16:11;14.85;;;7.22;;
11287;SDS011;5700;50.996;7.044;2023-05-10T06:19:13;22.83;;;8.15;;
11287;SDS011;5700;50.996;7.044;2023-05-10T06:22:16;17.42;;;7.28;;
11287;SDS011;5700;50.996;7.044;2023-05-10T06:25:17;18.65;;;7.32;;
11287;SDS011;5700;50.996;7.044;2023-05-10T06:28:19;16.17;;;7.80;;
11287;SDS011;5700;50.996;7.044;2023-05-10T06:31:21;18.08;;;7.97;;
11287;SDS011;5700;50.996;7.044;2023-05-10T06:34:22;14.82;;;7.22;;
11287;SDS011;5700;50.996;7.044;2023-05-10T06:37:25;16.20;;;7.63;;
11287;SDS011;5700;50.996;7.044;2023-05-10T06:40:27;17.77;;;7.15;;
11287;SDS011;5700;50.996;7.044;2023-05-10T06:43:28;17.17;;;7.40;;
11287;SDS011;5700;50.996;7.044;2023-05-10T06:46:30;22.33;;;7.97;;
11287;SDS011;5700;50.996;7.044;2023-05-10T06:49:31;15.02;;;7.55;;
11287;SDS011;5700;50.996;7.044;2023-05-10T06:52:34;16.02;;;7.18;;
11287;SDS011;5700;50.996;7.044;2023-05-10T06:55:36;16.25;;;7.70;;
11287;SDS011;5700;50.996;7.044;2023-05-10T06:58:38;19.60;;;8.13;;
11287;SDS011;5700;50.996;7.044;2023-05-10T07:01:39;16.40;;;7.57;;
11287;SDS011;5700;50.996;7.044;2023-05-10T07:04:41;16.52;;;7.60;;
11287;SDS011;5700;50.996;7.044;2023-05-10T07:07:43;19.27;;;8.15;;
11287;SDS011;5700;50.996;7.044;2023-05-10T07:10:45;17.50;;;7.38;;
11287;SDS011;5700;50.996;7.044;2023-05-10T07:13:47;17.67;;;7.95;;
11287;SDS011;5700;50.996;7.044;2023-05-10T07:16:48;20.40;;;8.80;;
11287;SDS011;5700;50.996;7.044;2023-05-10T07:19:50;14.70;;;7.43;;
11287;SDS011;5700;50.996;7.044;2023-05-10T07:22:53;17.80;;;7.75;;
11287;SDS011;5700;50.996;7.044;2023-05-10T07:25:54;16.80;;;8.35;;
11287;SDS011;5700;50.996;7.044;2023-05-10T07:28:57;13.73;;;6.65;;
11287;SDS011;5700;50.996;7.044;2023-05-10T07:31:58;16.48;;;6.80;;
11287;SDS011;5700;50.996;7.044;2023-05-10T07:35:00;17.67;;;8.20;;
11287;SDS011;5700;50.996;7.044;2023-05-10T07:38:02;17.95;;;7.55;;
11287;SDS011;5700;50.996;7.044;2023-05-10T07:41:04;16.42;;;7.50;;
11287;SDS011;5700;50.996;7.044;2023-05-10T07:44:06;14.80;;;7.38;;
11287;SDS011;5700;50.996;7.044;2023-05-10T07:47:07;16.95;;;7.65;;
11287;SDS011;5700;50.996;7.044;2023-05-10T07:50:09;16.63;;;7.53;;
11287;SDS011;5700;50.996;7.044;2023-05-10T07:53:12;17.90;;;7.60;;
11287;SDS011;5700;50.996;7.044;2023-05-10T07:56:21;12.40;;;6.40;;
11287;SDS011;5700;50.996;7.044;2023-05-10T07:59:25;15.45;;;7.53;;
11287;SDS011;5700;50.996;7.044;2023-05-10T08:02:26;16.88;;;7.25;;
11287;SDS011;5700;50.996;7.044;2023-05-10T08:05:28;6.65;;;3.58;;
11287;SDS011;5700;50.996;7.044;2023-05-10T08:08:31;6.05;;;3.10;;
11287;SDS011;5700;50.996;7.044;2023-05-10T08:11:32;6.40;;;3.67;;
11287;SDS011;5700;50.996;7.044;2023-05-10T08:14:34;7.15;;;3.65;;
11287;SDS011;5700;50.996;7.044;2023-05-10T08:17:36;7.13;;;3.60;;
11287;SDS011;5700;50.996;7.044;2023-05-10T08:20:38;10.07;;;3.83;;
11287;SDS011;5700;50.996;7.044;2023-05-10T08:23:41;7.00;;;3.28;;
11287;SDS011;5700;50.996;7.044;2023-05-10T08:26:43;5.57;;;3.40;;
11287;SDS011;5700;50.996;7.044;2023-05-10T08:29:45;7.78;;;3.28;;
11287;SDS011;5700;50.996;7.044;2023-05-10T08:32:46;6.47;;;3.47;;
11287;SDS011;5700;50.996;7.044;2023-05-10T08:35:48;4.00;;;2.20;;
11287;SDS011;5700;50.996;7.044;2023-05-10T08:38:51;5.07;;;2.63;;
11287;SDS011;5700;50.996;7.044;2023-05-10T08:41:53;7.63;;;3.95;;
11287;SDS011;5700;50.996;7.044;2023-05-10T08:44:55;6.50;;;3.45;;
11287;SDS011;5700;50.996;7.044;2023-05-10T08:47:58;6.10;;;2.60;;
11287;SDS011;5700;50.996;7.044;2023-05-10T08:51:01;6.15;;;2.47;;
11287;SDS011;5700;50.996;7.044;2023-05-10T08:54:05;4.82;;;2.65;;
11287;SDS011;5700;50.996;7.044;2023-05-10T08:57:08;5.20;;;3.08;;
11287;SDS011;5700;50.996;7.044;2023-05-10T09:00:09;6.95;;;2.85;;
11287;SDS011;5700;50.996;7.044;2023-05-10T09:03:11;7.60;;;3.28;;
11287;SDS011;5700;50.996;7.044;2023-05-10T09:06:13;9.75;;;4.25;;
11287;SDS011;5700;50.996;7.044;2023-05-10T09:09:17;13.18;;;4.28;;
11287;SDS011;5700;50.996;7.044;2023-05-10T09:12:18;4.90;;;2.67;;
11287;SDS011;5700;50.996;7.044;2023-05-10T09:15:20;8.27;;;3.67;;
11287;SDS011;5700;50.996;7.044;2023-05-10T09:18:22;7.43;;;2.95;;
11287;SDS011;5700;50.996;7.044;2023-05-10T09:21:24;7.95;;;3.58;;
11287;SDS011;5700;50.996;7.044;2023-05-10T09:24:29;9.15;;;3.65;;
11287;SDS011;5700;50.996;7.044;2023-05-10T09:27:31;8.10;;;3.83;;
11287;SDS011;5700;50.996;7.044;2023-05-10T09:30:32;7.78;;;3.78;;
11287;SDS011;5700;50.996;7.044;2023-05-10T09:33:43;7.63;;;3.92;;
11287;SDS011;5700;50.996;7.044;2023-05-10T09:36:52;14.43;;;4.78;;
11287;SDS011;5700;50.996;7.044;2023-05-10T09:39:56;9.45;;;4.05;;
11287;SDS011;5700;50.996;7.044;2023-05-10T09:42:58;9.95;;;3.63;;
11287;SDS011;5700;50.996;7.044;2023-05-10T09:46:00;13.27;;;5.32;;
11287;SDS011;5700;50.996;7.044;2023-05-10T09:49:11;7.78;;;3.90;;
11287;SDS011;5700;50.996;7.044;2023-05-10T09:52:16;13.40;;;6.32;;
11287;SDS011;5700;50.996;7.044;2023-05-10T09:55:19;14.30;;;5.63;;
11287;SDS011;5700;50.996;7.044;2023-05-10T09:58:22;14.23;;;5.13;;
11287;SDS011;5700;50.996;7.044;2023-05-10T10:01:25;14.48;;;5.65;;
11287;SDS011;5700;50.996;7.044;2023-05-10T10:04:27;11.43;;;4.80;;
11287;SDS011;5700;50.996;7.044;2023-05-10T10:07:28;12.38;;;5.95;;
11287;SDS011;5700;50.996;7.044;2023-05-10T10:10:32;19.83;;;8.15;;
11287;SDS011;5700;50.996;7.044;2023-05-10T10:13:34;17.70;;;7.68;;
11287;SDS011;5700;50.996;7.044;2023-05-10T10:16:35;18.67;;;7.72;;
11287;SDS011;5700;50.996;7.044;2023-05-10T10:19:37;18.67;;;6.78;;
11287;SDS011;5700;50.996;7.044;2023-05-10T10:22:38;19.35;;;7.35;;
11287;SDS011;5700;50.996;7.044;2023-05-10T10:25:45;15.90;;;6.18;;
11287;SDS011;5700;50.996;7.044;2023-05-10T10:28:50;17.42;;;7.13;;
11287;SDS011;5700;50.996;7.044;2023-05-10T10:32:03;17.75;;;6.68;;
11287;SDS011;5700;50.996;7.044;2023-05-10T10:35:10;13.75;;;6.18;;
11287;SDS011;5700;50.996;7.044;2023-05-10T10:38:12;12.15;;;5.78;;
11287;SDS011;5700;50.996;7.044;2023-05-10T10:41:26;20.10;;;9.38;;
11287;SDS011;5700;50.996;7.044;2023-05-10T10:44:36;17.90;;;9.18;;
11287;SDS011;5700;50.996;7.044;2023-05-10T10:47:39;17.02;;;7.97;;
11287;SDS011;5700;50.996;7.044;2023-05-10T10:50:43;13.90;;;7.88;;
11287;SDS011;5700;50.996;7.044;2023-05-10T10:53:45;17.08;;;8.02;;
11287;SDS011;5700;50.996;7.044;2023-05-10T10:57:01;14.02;;;8.00;;
11287;SDS011;5700;50.996;7.044;2023-05-10T11:03:29;11.95;;;6.80;;
11287;SDS011;5700;50.996;7.044;2023-05-10T11:06:30;13.75;;;7.45;;
11287;SDS011;5700;50.996;7.044;2023-05-10T11:09:38;12.48;;;6.78;;
11287;SDS011;5700;50.996;7.044;2023-05-10T11:12:51;12.43;;;6.90;;
11287;SDS011;5700;50.996;7.044;2023-05-10T11:15:54;14.05;;;7.18;;
11287;SDS011;5700;50.996;7.044;2023-05-10T11:18:58;12.00;;;6.55;;
11287;SDS011;5700;50.996;7.044;2023-05-10T11:25:18;12.10;;;6.90;;
11287;SDS011;5700;50.996;7.044;2023-05-10T11:28:21;11.77;;;5.82;;
11287;SDS011;5700;50.996;7.044;2023-05-10T11:31:22;11.45;;;6.78;;
11287;SDS011;5700;50.996;7.044;2023-05-10T11:34:27;16.27;;;7.00;;
11287;SDS011;5700;50.996;7.044;2023-05-10T11:37:30;9.60;;;4.70;;
11287;SDS011;5700;50.996;7.044;2023-05-10T11:40:34;9.82;;;4.80;;
11287;SDS011;5700;50.996;7.044;2023-05-10T11:43:37;9.52;;;4.68;;
11287;SDS011;5700;50.996;7.044;2023-05-10T11:46:39;9.15;;;4.35;;
11287;SDS011;5700;50.996;7.044;2023-05-10T11:49:43;10.55;;;5.72;;
11287;SDS011;5700;50.996;7.044;2023-05-10T11:52:44;9.98;;;5.03;;
11287;SDS011;5700;50.996;7.044;2023-05-10T11:55:46;11.07;;;5.38;;
11287;SDS011;5700;50.996;7.044;2023-05-10T11:58:53;8.80;;;4.75;;
11287;SDS011;5700;50.996;7.044;2023-05-10T12:01:55;7.60;;;3.92;;
11287;SDS011;5700;50.996;7.044;2023-05-10T12:04:57;7.72;;;4.32;;
11287;SDS011;5700;50.996;7.044;2023-05-10T12:08:10;7.90;;;4.28;;
11287;SDS011;5700;50.996;7.044;2023-05-10T12:11:12;6.82;;;3.75;;
11287;SDS011;5700;50.996;7.044;2023-05-10T12:14:16;7.22;;;3.63;;
11287;SDS011;5700;50.996;7.044;2023-05-10T12:17:19;4.43;;;2.50;;
11287;SDS011;5700;50.996;7.044;2023-05-10T12:20:21;5.22;;;2.58;;
11287;SDS011;5700;50.996;7.044;2023-05-10T12:23:24;3.40;;;1.85;;
11287;SDS011;5700;50.996;7.044;2023-05-10T12:26:27;4.63;;;2.28;;
11287;SDS011;5700;50.996;7.044;2023-05-10T12:29:31;4.15;;;2.00;;
11287;SDS011;5700;50.996;7.044;2023-05-10T12:32:39;4.07;;;1.67;;
11287;SDS011;5700;50.996;7.044;2023-05-10T12:35:45;2.28;;;1.60;;
11287;SDS011;5700;50.996;7.044;2023-05-10T12:38:47;4.00;;;1.70;;
11287;SDS011;5700;50.996;7.044;2023-05-10T12:41:48;2.53;;;1.48;;
11287;SDS011;5700;50.996;7.044;2023-05-10T12:44:55;1.77;;;1.30;;
11287;SDS011;5700;50.996;7.044;2023-05-10T12:47:57;2.10;;;1.42;;
11287;SDS011;5700;50.996;7.044;2023-05-10T12:50:59;2.55;;;1.50;;
11287;SDS011;5700;50.996;7.044;2023-05-10T12:54:02;2.05;;;1.30;;
11287;SDS011;5700;50.996;7.044;2023-05-10T12:57:03;6.03;;;1.30;;
11287;SDS011;5700;50.996;7.044;2023-05-10T13:00:07;2.40;;;1.60;;
11287;SDS011;5700;50.996;7.044;2023-05-10T13:03:09;3.17;;;1.60;;
11287;SDS011;5700;50.996;7.044;2023-05-10T13:06:11;2.55;;;1.50;;
11287;SDS011;5700;50.996;7.044;2023-05-10T13:09:13;2.15;;;1.20;;
11287;SDS011;5700;50.996;7.044;2023-05-10T13:12:15;2.75;;;1.58;;
11287;SDS011;5700;50.996;7.044;2023-05-10T13:15:17;2.83;;;1.30;;
11287;SDS011;5700;50.996;7.044;2023-05-10T13:18:19;2.80;;;1.17;;
11287;SDS011;5700;50.996;7.044;2023-05-10T13:21:20;2.75;;;1.23;;
11287;SDS011;5700;50.996;7.044;2023-05-10T13:24:21;3.75;;;1.45;;
11287;SDS011;5700;50.996;7.044;2023-05-10T13:27:23;2.78;;;1.77;;
11287;SDS011;5700;50.996;7.044;2023-05-10T13:30:26;1.65;;;1.17;;
11287;SDS011;5700;50.996;7.044;2023-05-10T13:33:28;1.98;;;1.38;;
11287;SDS011;5700;50.996;7.044;2023-05-10T13:36:30;1.50;;;1.20;;
11287;SDS011;5700;50.996;7.044;2023-05-10T13:39:32;1.77;;;1.25;;
11287;SDS011;5700;50.996;7.044;2023-05-10T13:42:34;2.80;;;1.10;;
11287;SDS011;5700;50.996;7.044;2023-05-10T13:45:37;1.55;;;0.93;;
11287;SDS011;5700;50.996;7.044;2023-05-10T13:48:38;1.27;;;0.98;;
11287;SDS011;5700;50.996;7.044;2023-05-10T13:51:40;2.03;;;1.30;;
11287;SDS011;5700;50.996;7.044;2023-05-10T13:54:41;2.63;;;1.30;;
11287;SDS011;5700;50.996;7.044;2023-05-10T13:57:42;3.47;;;1.20;;
11287;SDS011;5700;50.996;7.044;2023-05-10T14:00:45;1.30;;;0.95;;
11287;SDS011;5700;50.996;7.044;2023-05-10T14:03:47;2.42;;;0.90;;
11287;SDS011;5700;50.996;7.044;2023-05-10T14:06:48;1.38;;;0.80;;
11287;SDS011;5700;50.996;7.044;2023-05-10T14:09:49;1.90;;;1.02;;
11287;SDS011;5700;50.996;7.044;2023-05-10T14:12:51;4.15;;;1.20;;
11287;SDS011;5700;50.996;7.044;2023-05-10T14:15:54;34.58;;;2.40;;
11287;SDS011;5700;50.996;7.044;2023-05-10T14:18:55;1.83;;;0.75;;
11287;SDS011;5700;50.996;7.044;2023-05-10T14:21:57;1.45;;;0.70;;
11287;SDS011;5700;50.996;7.044;2023-05-10T14:24:58;1.00;;;0.80;;
11287;SDS011;5700;50.996;7.044;2023-05-10T14:28:00;1.38;;;0.90;;
11287;SDS011;5700;50.996;7.044;2023-05-10T14:31:02;1.63;;;1.02;;
11287;SDS011;5700;50.996;7.044;2023-05-10T14:34:05;1.65;;;0.88;;
11287;SDS011;5700;50.996;7.044;2023-05-10T14:37:06;2.05;;;0.80;;
11287;SDS011;5700;50.996;7.044;2023-05-10T14:40:08;2.03;;;0.90;;
11287;SDS011;5700;50.996;7.044;2023-05-10T14:43:10;1.02;;;0.60;;
11287;SDS011;5700;50.996;7.044;2023-05-10T14:46:12;1.83;;;0.90;;
11287;SDS011;5700;50.996;7.044;2023-05-10T14:49:14;1.63;;;0.80;;
11287;SDS011;5700;50.996;7.044;2023-05-10T14:52:15;1.60;;;0.68;;
11287;SDS011;5700;50.996;7.044;2023-05-10T14:55:17;1.67;;;0.70;;
11287;SDS011;5700;50.996;7.044;2023-05-10T14:58:20;1.73;;;0.90;;
11287;SDS011;5700;50.996;7.044;2023-05-10T15:01:22;1.00;;;0.65;;
11287;SDS011;5700;50.996;7.044;2023-05-10T15:04:24;8.50;;;3.15;;
11287;SDS011;5700;50.996;7.044;2023-05-10T15:07:26;5.88;;;2.60;;
11287;SDS011;5700;50.996;7.044;2023-05-10T15:10:28;8.93;;;3.10;;
11287;SDS011;5700;50.996;7.044;2023-05-10T15:13:30;8.80;;;3.20;;
11287;SDS011;5700;50.996;7.044;2023-05-10T15:16:32;6.03;;;3.00;;
11287;SDS011;5700;50.996;7.044;2023-05-10T15:19:34;5.32;;;2.45;;
11287;SDS011;5700;50.996;7.044;2023-05-10T15:22:36;6.97;;;2.53;;
11287;SDS011;5700;50.996;7.044;2023-05-10T15:25:40;6.55;;;2.63;;
11287;SDS011;5700;50.996;7.044;2023-05-10T15:28:42;3.85;;;2.20;;
11287;SDS011;5700;50.996;7.044;2023-05-10T15:31:45;4.43;;;1.70;;
11287;SDS011;5700;50.996;7.044;2023-05-10T15:34:47;5.35;;;2.35;;
11287;SDS011;5700;50.996;7.044;2023-05-10T15:37:49;6.00;;;2.40;;
11287;SDS011;5700;50.996;7.044;2023-05-10T15:40:50;4.55;;;2.20;;
11287;SDS011;5700;50.996;7.044;2023-05-10T15:43:53;4.63;;;1.73;;
11287;SDS011;5700;50.996;7.044;2023-05-10T15:46:55;4.13;;;1.65;;
11287;SDS011;5700;50.996;7.044;2023-05-10T15:49:57;4.18;;;2.05;;
11287;SDS011;5700;50.996;7.044;2023-05-10T15:52:58;4.20;;;2.13;;
11287;SDS011;5700;50.996;7.044;2023-05-10T15:56:00;2.30;;;1.50;;
11287;SDS011;5700;50.996;7.044;2023-05-10T15:59:01;4.18;;;1.80;;
11287;SDS011;5700;50.996;7.044;2023-05-10T16:02:06;4.57;;;2.22;;
11287;SDS011;5700;50.996;7.044;2023-05-10T16:05:08;5.05;;;2.30;;
11287;SDS011;5700;50.996;7.044;2023-05-10T16:08:09;4.10;;;2.15;;
11287;SDS011;5700;50.996;7.044;2023-05-10T16:11:11;6.72;;;2.35;;
11287;SDS011;5700;50.996;7.044;2023-05-10T16:14:12;6.40;;;2.63;;
11287;SDS011;5700;50.996;7.044;2023-05-10T16:17:16;3.72;;;1.83;;
11287;SDS011;5700;50.996;7.044;2023-05-10T16:20:19;7.28;;;2.00;;
11287;SDS011;5700;50.996;7.044;2023-05-10T16:23:20;4.10;;;1.77;;
11287;SDS011;5700;50.996;7.044;2023-05-10T16:26:22;3.72;;;1.70;;
11287;SDS011;5700;50.996;7.044;2023-05-10T16:29:23;4.32;;;1.95;;
11287;SDS011;5700;50.996;7.044;2023-05-10T16:32:26;5.90;;;1.90;;
11287;SDS011;5700;50.996;7.044;2023-05-10T16:35:28;2.95;;;1.85;;
11287;SDS011;5700;50.996;7.044;2023-05-10T16:38:29;5.82;;;2.53;;
11287;SDS011;5700;50.996;7.044;2023-05-10T16:41:31;3.70;;;2.17;;
11287;SDS011;5700;50.996;7.044;2023-05-10T16:44:33;4.38;;;1.92;;
11287;SDS011;5700;50.996;7.044;2023-05-10T16:47:37;6.03;;;2.05;;
11287;SDS011;5700;50.996;7.044;2023-05-10T16:50:41;4.93;;;2.05;;
11287;SDS011;5700;50.996;7.044;2023-05-10T16:53:43;6.63;;;1.98;;
11287;SDS011;5700;50.996;7.044;2023-05-10T16:56:44;4.82;;;2.20;;
11287;SDS011;5700;50.996;7.044;2023-05-10T16:59:46;5.07;;;1.80;;
11287;SDS011;5700;50.996;7.044;2023-05-10T17:02:49;6.22;;;1.95;;
11287;SDS011;5700;50.996;7.044;2023-05-10T17:05:50;2.92;;;1.42;;
11287;SDS011;5700;50.996;7.044;2023-05-10T17:08:52;2.92;;;1.83;;
11287;SDS011;5700;50.996;7.044;2023-05-10T17:11:53;4.10;;;1.80;;
11287;SDS011;5700;50.996;7.044;2023-05-10T17:14:54;5.13;;;1.70;;
11287;SDS011;5700;50.996;7.044;2023-05-10T17:17:57;4.05;;;1.90;;
11287;SDS011;5700;50.996;7.044;2023-05-10T17:20:59;8.02;;;2.20;;
11287;SDS011;5700;50.996;7.044;2023-05-10T17:24:00;6.43;;;2.30;;
11287;SDS011;5700;50.996;7.044;2023-05-10T17:27:02;5.25;;;2.20;;
11287;SDS011;5700;50.996;7.044;2023-05-10T17:30:04;3.25;;;1.73;;
11287;SDS011;5700;50.996;7.044;2023-05-10T17:33:07;4.90;;;2.10;;
11287;SDS011;5700;50.996;7.044;2023-05-10T17:36:09;2.65;;;1.55;;
11287;SDS011;5700;50.996;7.044;2023-05-10T17:39:10;2.70;;;1.50;;
11287;SDS011;5700;50.996;7.044;2023-05-10T17:42:12;4.35;;;1.70;;
11287;SDS011;5700;50.996;7.044;2023-05-10T17:45:16;4.97;;;2.35;;
11287;SDS011;5700;50.996;7.044;2023-05-10T17:48:19;7.38;;;2.20;;
11287;SDS011;5700;50.996;7.044;2023-05-10T17:51:21;5.18;;;2.38;;
11287;SDS011;5700;50.996;7.044;2023-05-10T17:54:22;2.17;;;1.55;;
11287;SDS011;5700;50.996;7.044;2023-05-10T17:57:23;5.00;;;1.98;;
11287;SDS011;5700;50.996;7.044;2023-05-10T18:00:25;3.83;;;2.20;;
11287;SDS011;5700;50.996;7.044;2023-05-10T18:03:28;4.15;;;1.83;;
11287;SDS011;5700;50.996;7.044;2023-05-10T18:06:30;5.88;;;1.85;;
11287;SDS011;5700;50.996;7.044;2023-05-10T18:09:31;5.05;;;1.65;;
11287;SDS011;5700;50.996;7.044;2023-05-10T18:12:33;3.92;;;2.08;;
11287;SDS011;5700;50.996;7.044;2023-05-10T18:15:34;5.00;;;1.98;;
11287;SDS011;5700;50.996;7.044;2023-05-10T18:18:37;9.55;;;4.00;;
11287;SDS011;5700;50.996;7.044;2023-05-10T18:21:39;8.95;;;3.60;;
11287;SDS011;5700;50.996;7.044;2023-05-10T18:24:40;9.43;;;3.80;;
11287;SDS011;5700;50.996;7.044;2023-05-10T18:27:42;9.70;;;4.22;;
11287;SDS011;5700;50.996;7.044;2023-05-10T18:30:43;6.53;;;3.50;;
11287;SDS011;5700;50.996;7.044;2023-05-10T18:33:46;9.50;;;4.72;;
11287;SDS011;5700;50.996;7.044;2023-05-10T18:36:48;10.13;;;4.18;;